Terminal Aerodrome Forecast
Issued by NWS

Home | Current Version | Previous Version | Text Only | Print | Product List | Glossary On
Versions: 1 2 3 4 5 6 7 8 9 10 11 12
000
FTAK31 PANC 051720
TAFADL
TAF
PADL 051720Z 0518/0618 02013KT P6SM VCSH SCT020 OVC035
     FM052000 36013KT 5SM -SN SCT010 BKN020
     FM052300 36014G22KT 2SM -SN BLSN BKN012
     FM060300 34012G20KT 5SM -SN BLSN BKN020
     FM060800 33010KT P6SM VCSH SCT020 OVC035=

USA.gov is the U.S. government's official web portal to all federal, state and local government web resources and services.